Time;durP1;ratioP1;P1;durP2;ratioP2;P2;SDS_P1;SDS_P2;PMS_P1;PMS_P2;Temp;Humidity;BMP_temperature;BMP_pressure;BME280_temperature;BME280_humidity;BME280_pressure;Samples;Min_cycle;Max_cycle;Signal;HPM_P1;HPM_P2
2020/12/27 00:02:16;;;;;;;19.27;11.05;;;;;;;6.89;84.94;99485.00;5115949;28;20039;-84
2020/12/27 00:04:42;;;;;;;15.27;10.07;;;;;;;6.88;84.85;99486.16;5114327;28;20023;-81
2020/12/27 00:07:13;;;;;;;15.77;9.98;;;;;;;6.88;84.62;99488.94;5097046;28;20139;-82
2020/12/27 00:09:40;;;;;;;15.55;10.85;;;;;;;6.86;84.70;99494.00;5096979;28;20062;-80
2020/12/27 00:12:12;;;;;;;13.77;9.07;;;;;;;6.86;85.11;99505.06;5097405;28;20118;-81
2020/12/27 00:14:38;;;;;;;10.75;7.30;;;;;;;6.69;84.57;99468.28;5115224;28;20103;-81
2020/12/27 00:17:08;;;;;;;9.05;6.00;;;;;;;6.85;85.03;99486.88;5097357;28;20123;-83
2020/12/27 00:19:33;;;;;;;14.48;5.97;;;;;;;6.86;85.15;99477.41;5096965;28;20359;-81
2020/12/27 00:21:59;;;;;;;10.55;6.93;;;;;;;6.73;84.32;99480.25;5096895;28;20092;-82
2020/12/27 00:24:25;;;;;;;11.10;8.25;;;;;;;6.79;84.14;99476.06;5096992;28;20454;-79
2020/12/27 00:26:51;;;;;;;12.48;9.88;;;;;;;6.75;83.78;99458.56;5114942;28;20036;-81
2020/12/27 00:29:17;;;;;;;16.52;11.18;;;;;;;6.78;85.04;99454.31;5096594;28;20106;-82
2020/12/27 00:31:43;;;;;;;19.67;14.63;;;;;;;6.79;85.50;99442.09;5113503;28;20027;-83
2020/12/27 00:34:09;;;;;;;20.00;13.82;;;;;;;6.83;86.02;99446.56;5096824;28;20023;-81
2020/12/27 00:36:34;;;;;;;10.50;8.45;;;;;;;6.86;86.06;99460.81;5113442;28;20474;-83
2020/12/27 00:39:00;;;;;;;9.63;7.00;;;;;;;6.68;85.24;99454.81;5113387;28;20027;-81
2020/12/27 00:41:28;;;;;;;10.02;8.27;;;;;;;6.76;85.87;99457.41;5096760;28;20023;-81
2020/12/27 00:43:53;;;;;;;15.48;7.55;;;;;;;6.77;85.82;99447.97;5096111;28;20019;-79
2020/12/27 00:46:20;;;;;;;13.30;8.27;;;;;;;6.73;86.08;99435.22;5096880;28;20111;-80
2020/12/27 00:48:46;;;;;;;8.63;6.43;;;;;;;6.71;85.79;99421.75;5096837;28;20031;-81
2020/12/27 00:51:12;;;;;;;11.60;6.65;;;;;;;6.81;85.91;99437.00;5114943;28;20041;-83
2020/12/27 00:53:38;;;;;;;11.82;7.30;;;;;;;6.84;85.99;99430.75;5096068;28;20134;-83
2020/12/27 00:56:03;;;;;;;19.20;7.70;;;;;;;6.85;85.90;99431.56;5096176;28;20024;-81
2020/12/27 00:58:32;;;;;;;13.23;7.20;;;;;;;6.79;86.32;99429.06;5114637;28;20027;-84
2020/12/27 01:01:02;;;;;;;10.00;6.68;;;;;;;6.83;85.85;99429.97;5114482;28;20461;-79
2020/12/27 01:03:32;;;;;;;10.90;6.00;;;;;;;6.86;86.42;99417.38;5114342;28;20366;-82
2020/12/27 01:05:58;;;;;;;8.32;4.38;;;;;;;6.76;85.89;99420.66;5095854;28;20027;-82
2020/12/27 01:08:24;;;;;;;7.80;4.97;;;;;;;6.67;85.78;99409.78;5096146;28;20026;-81
2020/12/27 01:10:49;;;;;;;8.77;4.63;;;;;;;6.70;85.79;99424.84;5096533;28;20027;-81
2020/12/27 01:13:15;;;;;;;11.55;5.03;;;;;;;6.68;85.71;99439.03;5096243;28;20031;-82
2020/12/27 01:15:40;;;;;;;6.32;3.97;;;;;;;6.48;86.33;99417.97;5096168;28;20039;-83
2020/12/27 01:18:06;;;;;;;10.63;5.30;;;;;;;6.63;85.98;99442.06;5096077;28;20027;-81
2020/12/27 01:20:33;;;;;;;7.22;5.43;;;;;;;6.61;86.04;99427.00;5114498;28;20032;-81
2020/12/27 01:23:02;;;;;;;7.28;4.55;;;;;;;6.60;85.74;99430.91;5096271;28;20059;-81
2020/12/27 01:25:27;;;;;;;7.57;4.20;;;;;;;6.59;86.16;99421.81;5096298;28;20036;-81
2020/12/27 01:27:53;;;;;;;7.00;3.65;;;;;;;6.54;86.27;99422.06;5114409;28;20042;-83
2020/12/27 01:30:18;;;;;;;4.80;3.47;;;;;;;6.42;85.95;99411.88;5096031;28;20110;-82
2020/12/27 01:32:44;;;;;;;4.70;2.83;;;;;;;6.40;85.57;99418.94;5095903;28;20023;-82
2020/12/27 01:35:09;;;;;;;2.45;2.25;;;;;;;6.34;86.17;99425.84;5096145;28;20020;-81
2020/12/27 01:37:35;;;;;;;5.10;2.78;;;;;;;6.28;85.32;99415.09;5096296;28;20381;-81
2020/12/27 01:40:01;;;;;;;2.35;1.90;;;;;;;6.38;84.97;99412.94;5095873;28;20492;-82
2020/12/27 01:42:26;;;;;;;3.40;2.20;;;;;;;6.38;85.84;99407.44;5095851;28;20028;-82
2020/12/27 01:44:51;;;;;;;3.28;2.20;;;;;;;6.29;85.52;99393.78;5096462;28;20043;-84
2020/12/27 01:47:20;;;;;;;3.05;2.00;;;;;;;6.34;83.80;99387.19;5095987;28;20469;-80
2020/12/27 01:49:46;;;;;;;3.35;2.00;;;;;;;6.58;83.28;99395.34;5113876;28;20106;-81
2020/12/27 01:52:12;;;;;;;8.18;1.90;;;;;;;6.64;81.88;99388.38;5096009;28;20116;-82
2020/12/27 01:54:38;;;;;;;5.63;2.30;;;;;;;6.47;83.57;99397.81;5095063;28;20547;-81
2020/12/27 01:57:13;;;;;;;3.63;2.03;;;;;;;6.41;84.83;99395.69;5095770;28;20083;-80
2020/12/27 01:59:39;;;;;;;3.90;2.35;;;;;;;6.20;85.01;99363.53;5095745;28;20115;-81
2020/12/27 02:02:08;;;;;;;3.22;2.50;;;;;;;6.34;85.76;99395.47;5114063;28;20054;-80
2020/12/27 02:04:34;;;;;;;3.40;2.78;;;;;;;6.35;85.82;99394.34;5095643;28;20031;-81
2020/12/27 02:07:04;;;;;;;5.57;2.25;;;;;;;6.34;85.77;99389.94;5095912;28;20130;-80
2020/12/27 02:09:30;;;;;;;3.70;2.85;;;;;;;6.34;85.56;99389.94;5095668;28;20026;-83
2020/12/27 02:12:05;;;;;;;5.45;2.80;;;;;;;6.32;85.29;99387.53;5095817;28;20488;-81
2020/12/27 02:14:30;;;;;;;8.60;4.13;;;;;;;6.25;84.20;99379.88;5095587;28;20031;-79
2020/12/27 02:16:56;;;;;;;6.22;3.63;;;;;;;6.04;85.03;99357.19;5095467;28;20024;-81
2020/12/27 02:19:21;;;;;;;6.13;4.68;;;;;;;6.09;85.85;99367.19;5116404;28;20038;-81
2020/12/27 02:21:48;;;;;;;16.95;8.35;;;;;;;6.14;86.09;99353.91;5116229;28;20020;-83
2020/12/27 02:24:14;;;;;;;35.22;17.92;;;;;;;6.13;86.41;99352.31;5099747;28;20084;-82
2020/12/27 02:26:39;;;;;;;36.65;19.15;;;;;;;6.20;86.79;99362.75;5099186;28;20023;-83
2020/12/27 02:29:09;;;;;;;29.48;14.57;;;;;;;6.19;86.68;99350.91;5099465;28;20119;-82
2020/12/27 02:31:34;;;;;;;19.20;12.18;;;;;;;6.19;86.13;99339.84;5115907;28;20059;-84
2020/12/27 02:34:00;;;;;;;15.02;8.82;;;;;;;6.21;86.53;99332.00;5098854;28;20066;-85
2020/12/27 02:36:25;;;;;;;12.00;7.15;;;;;;;6.29;86.98;99338.53;5116052;28;20027;-81
2020/12/27 02:38:51;;;;;;;8.05;5.60;;;;;;;6.33;86.89;99338.59;5098530;28;20597;-81
2020/12/27 02:41:19;;;;;;;6.53;4.90;;;;;;;6.25;86.55;99324.63;5098274;28;20027;-82
2020/12/27 02:43:46;;;;;;;5.10;4.13;;;;;;;6.27;86.18;99319.53;5098573;28;20023;-82
2020/12/27 02:46:31;;;;;;;4.72;3.65;;;;;;;6.23;86.27;99326.94;5098657;28;20120;-82
2020/12/27 02:48:57;;;;;;;5.38;3.47;;;;;;;6.27;86.54;99319.53;5115036;28;20043;-82
2020/12/27 02:51:25;;;;;;;7.15;3.90;;;;;;;6.28;86.02;99299.06;5098920;28;20035;-81
2020/12/27 02:53:51;;;;;;;4.80;3.90;;;;;;;6.27;85.87;99297.44;5116519;28;20043;-82
2020/12/27 02:56:18;;;;;;;5.20;4.40;;;;;;;6.27;86.34;99293.88;5098690;28;20027;-81
2020/12/27 02:58:44;;;;;;;3.63;3.25;;;;;;;6.34;85.61;99282.19;5098350;28;20036;-82
2020/12/27 03:01:10;;;;;;;3.65;3.35;;;;;;;6.41;84.90;99283.19;5116888;28;20054;-79
2020/12/27 03:03:37;;;;;;;3.17;2.88;;;;;;;6.34;84.24;99284.94;5115370;28;20055;-81
2020/12/27 03:06:02;;;;;;;3.67;2.67;;;;;;;6.34;83.96;99284.94;5116837;28;20031;-80
2020/12/27 03:08:28;;;;;;;3.45;2.97;;;;;;;6.31;84.69;99275.44;5115953;28;20118;-80
2020/12/27 03:10:53;;;;;;;4.03;3.22;;;;;;;6.27;85.39;99263.47;5116569;28;20028;-82
2020/12/27 03:13:19;;;;;;;3.60;3.30;;;;;;;6.20;85.50;99258.59;5098026;28;20466;-80
2020/12/27 03:15:44;;;;;;;2.67;2.47;;;;;;;6.27;85.73;99275.31;5098078;28;20020;-82
2020/12/27 03:18:10;;;;;;;2.88;2.58;;;;;;;6.23;85.72;99257.88;5098566;28;20122;-83
2020/12/27 03:20:36;;;;;;;3.63;2.95;;;;;;;6.24;85.49;99265.00;5081163;28;20489;-80
2020/12/27 03:23:01;;;;;;;3.10;2.67;;;;;;;6.21;85.11;99267.66;5098349;28;20032;-80
2020/12/27 03:25:27;;;;;;;3.17;2.85;;;;;;;6.13;85.61;99255.66;5098114;28;20449;-81
2020/12/27 03:27:52;;;;;;;3.00;2.10;;;;;;;6.20;85.85;99264.09;5114851;28;20474;-80
2020/12/27 03:30:18;;;;;;;2.25;2.05;;;;;;;6.17;85.98;99258.47;5115654;28;20028;-81
2020/12/27 03:32:43;;;;;;;6.00;2.70;;;;;;;6.04;85.90;99244.75;5115359;28;20094;-81
2020/12/27 03:35:09;;;;;;;2.75;2.42;;;;;;;6.23;85.87;99268.09;5115541;28;20132;-82
2020/12/27 03:37:35;;;;;;;4.28;2.60;;;;;;;6.17;86.26;99264.81;5097209;28;20031;-82
2020/12/27 03:40:06;;;;;;;11.75;7.97;;;;;;;6.18;86.22;99263.69;5115581;28;20024;-81
2020/12/27 03:42:34;;;;;;;17.05;12.80;;;;;;;6.20;86.08;99264.09;5115706;28;20028;-81
2020/12/27 03:45:03;;;;;;;14.32;10.93;;;;;;;6.19;85.96;99261.72;5115378;28;20481;-79
2020/12/27 03:47:29;;;;;;;6.60;5.60;;;;;;;6.21;85.40;99260.19;5114328;28;20056;-82
2020/12/27 03:49:54;;;;;;;4.10;3.42;;;;;;;6.16;85.13;99262.41;5114968;28;20027;-80
2020/12/27 03:52:20;;;;;;;6.07;3.80;;;;;;;6.18;85.21;99254.56;5097239;28;20035;-81
2020/12/27 03:54:45;;;;;;;15.70;10.70;;;;;;;6.19;84.97;99248.69;5096211;28;20163;-80
2020/12/27 03:57:11;;;;;;;19.95;14.10;;;;;;;6.19;85.23;99256.97;5113690;28;20028;-80
2020/12/27 03:59:36;;;;;;;15.98;12.27;;;;;;;6.08;84.60;99255.91;5097408;28;20027;-80
2020/12/27 04:02:02;;;;;;;21.63;15.60;;;;;;;6.07;85.21;99267.28;5097422;28;20027;-78
2020/12/27 04:04:27;;;;;;;39.15;34.90;;;;;;;6.10;84.87;99264.63;5097126;28;20462;-82
2020/12/27 04:06:53;;;;;;;36.30;28.73;;;;;;;6.05;84.95;99270.41;5114458;28;20062;-82
2020/12/27 04:09:18;;;;;;;40.05;32.95;;;;;;;6.03;85.11;99269.97;5115197;28;20477;-79
2020/12/27 04:11:44;;;;;;;30.55;24.33;;;;;;;6.12;84.99;99261.50;5113763;28;20457;-82
2020/12/27 04:14:10;;;;;;;33.80;24.10;;;;;;;6.14;84.52;99246.19;5096650;28;20085;-81
2020/12/27 04:16:35;;;;;;;41.47;23.92;;;;;;;6.16;84.97;99252.16;5114384;28;20024;-79
2020/12/27 04:19:01;;;;;;;18.77;11.40;;;;;;;6.14;84.69;99242.63;5114896;28;20452;-79
2020/12/27 04:21:26;;;;;;;8.30;5.95;;;;;;;6.03;85.34;99237.66;5113858;28;20031;-79
2020/12/27 04:23:52;;;;;;;32.00;18.77;;;;;;;6.08;85.17;99241.31;5113801;28;20035;-81
2020/12/27 04:26:17;;;;;;;23.10;16.55;;;;;;;6.00;84.96;99237.53;5113655;28;20027;-80
2020/12/27 04:28:43;;;;;;;15.00;9.63;;;;;;;6.05;83.73;99234.53;5113668;28;20024;-82
2020/12/27 04:31:13;;;;;;;7.53;5.13;;;;;;;6.21;82.85;99242.81;5096530;28;20521;-84
2020/12/27 04:33:39;;;;;;;6.10;4.63;;;;;;;6.32;81.04;99237.56;5096688;28;20027;-80
2020/12/27 04:36:05;;;;;;;6.22;4.50;;;;;;;6.30;81.60;99241.47;5096866;28;20115;-79
2020/12/27 04:38:31;;;;;;;3.33;3.03;;;;;;;6.24;82.53;99231.06;5096513;28;20118;-80
2020/12/27 04:40:57;;;;;;;13.65;8.43;;;;;;;6.24;82.54;99231.06;5114740;28;20485;-79
2020/12/27 04:43:23;;;;;;;9.80;6.32;;;;;;;6.24;83.26;99242.91;5096064;28;20130;-81
2020/12/27 04:45:52;;;;;;;3.97;3.22;;;;;;;6.38;80.72;99239.69;5096285;28;20020;-81
2020/12/27 04:48:19;;;;;;;4.60;2.90;;;;;;;6.17;82.16;99215.09;5114423;28;20032;-81
2020/12/27 04:50:45;;;;;;;3.80;3.40;;;;;;;6.23;82.03;99224.75;5115097;28;20019;-81
2020/12/27 04:53:12;;;;;;;8.57;5.18;;;;;;;6.15;81.97;99200.03;5092471;28;20044;-79
2020/12/27 04:55:41;;;;;;;9.10;5.93;;;;;;;6.28;81.82;99210.66;5092586;28;20028;-80
2020/12/27 04:58:14;;;;;;;4.40;3.15;;;;;;;6.46;79.91;99226.84;5093821;28;20114;-81
2020/12/27 05:00:39;;;;;;;4.72;3.30;;;;;;;6.31;80.88;99211.88;5093283;28;20496;-81
2020/12/27 05:03:05;;;;;;;1.90;1.80;;;;;;;6.48;79.69;99224.53;5092704;28;20032;-81
2020/12/27 05:05:30;;;;;;;3.20;2.08;;;;;;;6.37;80.51;99224.25;5093287;28;20040;-80
2020/12/27 05:07:56;;;;;;;2.38;2.17;;;;;;;6.28;80.81;99207.06;5092838;28;20374;-81
2020/12/27 05:10:21;;;;;;;2.13;1.85;;;;;;;6.33;80.63;99214.28;5092345;28;20074;-81
2020/12/27 05:12:48;;;;;;;1.80;1.60;;;;;;;6.30;81.64;99216.63;5092710;28;20024;-82
2020/12/27 05:15:13;;;;;;;2.17;1.98;;;;;;;6.29;81.16;99215.00;5093898;28;20149;-82
2020/12/27 05:17:39;;;;;;;2.17;1.65;;;;;;;6.26;81.32;99207.44;5092539;28;20032;-80
2020/12/27 05:20:14;;;;;;;1.50;1.17;;;;;;;6.27;81.14;99213.75;5092610;28;20035;-81
2020/12/27 05:22:40;;;;;;;1.95;1.85;;;;;;;6.22;80.73;99212.06;5092804;28;20032;-80
2020/12/27 05:25:07;;;;;;;2.80;1.75;;;;;;;6.25;80.88;99222.41;5093145;28;20063;-82
2020/12/27 05:27:39;;;;;;;2.05;1.60;;;;;;;6.26;80.82;99234.25;5092509;28;20470;-80
2020/12/27 05:30:08;;;;;;;2.95;1.83;;;;;;;6.30;80.78;99230.44;5093483;28;20028;-81
2020/12/27 05:32:35;;;;;;;1.60;1.50;;;;;;;6.26;81.23;99218.47;5092540;28;20054;-81
2020/12/27 05:35:01;;;;;;;2.13;2.03;;;;;;;6.34;81.58;99224.16;5092447;28;20120;-81
2020/12/27 05:37:27;;;;;;;3.53;2.33;;;;;;;6.35;82.13;99225.78;5092417;28;20122;-80
2020/12/27 05:39:53;;;;;;;2.83;2.47;;;;;;;6.40;81.99;99222.75;5092740;28;20508;-80
2020/12/27 05:42:27;;;;;;;3.42;2.45;;;;;;;6.36;82.17;99214.38;5092594;28;20035;-80
2020/12/27 05:44:53;;;;;;;3.63;2.50;;;;;;;6.39;82.48;99208.16;5094318;28;20077;-79
2020/12/27 05:47:19;;;;;;;2.97;2.55;;;;;;;6.47;82.54;99203.56;5093561;28;20029;-82
2020/12/27 05:49:46;;;;;;;3.53;2.60;;;;;;;6.45;83.00;99214.19;5092558;28;20039;-83
2020/12/27 05:52:19;;;;;;;4.00;3.15;;;;;;;6.49;83.19;99212.31;5093920;28;20028;-78
2020/12/27 05:54:47;;;;;;;4.60;2.83;;;;;;;6.48;83.14;99213.47;5095621;28;20044;-82
2020/12/27 05:57:16;;;;;;;7.13;2.70;;;;;;;6.47;83.46;99212.66;5096094;28;20024;-82
2020/12/27 05:59:45;;;;;;;2.97;2.53;;;;;;;6.53;83.33;99210.44;5113328;28;20124;-81
2020/12/27 06:02:41;;;;;;;7.15;6.20;;;;;;;6.58;83.08;99207.38;5096204;28;20039;-80
2020/12/27 06:05:07;;;;;;;13.90;9.93;;;;;;;6.59;83.52;99216.47;5104083;28;20050;-83
2020/12/27 06:07:46;;;;;;;13.45;8.70;;;;;;;6.57;83.61;99214.09;5096187;28;20390;-78
2020/12/27 06:10:21;;;;;;;8.05;5.80;;;;;;;6.42;83.29;99192.81;5095972;28;20074;-79
2020/12/27 06:13:01;;;;;;;4.15;3.75;;;;;;;6.47;83.40;99195.28;5096114;28;20111;-80
2020/12/27 06:15:31;;;;;;;3.20;2.70;;;;;;;6.50;83.58;99211.16;5095801;28;20032;-78
2020/12/27 06:18:24;;;;;;;5.05;3.25;;;;;;;6.51;84.40;99218.28;5095702;28;20024;-84
2020/12/27 06:21:10;;;;;;;4.03;2.92;;;;;;;6.56;84.40;99210.53;5095717;28;20031;-85
2020/12/27 06:23:37;;;;;;;6.57;5.43;;;;;;;6.63;83.82;99215.41;5080516;28;20119;-84
2020/12/27 06:26:04;;;;;;;9.68;7.13;;;;;;;6.53;84.42;99215.97;5095973;28;20495;-81
2020/12/27 06:28:31;;;;;;;7.05;6.15;;;;;;;6.33;84.61;99178.38;5095536;28;20070;-80
2020/12/27 06:31:09;;;;;;;7.65;6.63;;;;;;;6.57;83.78;99216.84;5078840;28;20458;-79
2020/12/27 06:33:41;;;;;;;13.05;8.18;;;;;;;6.62;83.99;99218.53;5112789;28;20027;-82
2020/12/27 06:36:33;;;;;;;10.90;7.53;;;;;;;6.61;84.44;99216.94;5097334;28;20127;-79
2020/12/27 06:38:59;;;;;;;13.38;8.05;;;;;;;6.62;84.13;99210.25;5102347;28;20070;-82
2020/12/27 06:41:27;;;;;;;10.70;6.82;;;;;;;6.61;84.26;99209.44;5095701;28;20028;-82
2020/12/27 06:43:55;;;;;;;6.60;4.50;;;;;;;6.56;82.89;99218.81;5095190;28;20119;-75
2020/12/27 06:46:26;;;;;;;5.00;3.60;;;;;;;6.61;83.43;99212.22;5095294;28;20445;-76
2020/12/27 06:49:11;;;;;;;7.35;4.97;;;;;;;6.97;84.92;99219.31;5096277;28;20027;-75
2020/12/27 06:51:46;;;;;;;5.43;4.57;;;;;;;6.87;85.19;99219.06;5095377;28;20482;-75
2020/12/27 06:54:12;;;;;;;5.40;4.43;;;;;;;6.86;84.52;99209.19;5094379;28;20446;-75
2020/12/27 06:56:45;;;;;;;7.25;5.43;;;;;;;6.95;84.19;99220.84;5094772;28;20039;-74
2020/12/27 06:59:13;;;;;;;10.15;6.72;;;;;;;6.99;84.12;99218.97;5096268;28;20466;-74
2020/12/27 07:01:39;;;;;;;5.85;5.28;;;;;;;7.01;83.48;99211.91;5095642;28;20478;-75
2020/12/27 07:04:16;;;;;;;9.60;5.65;;;;;;;6.99;83.55;99210.69;5094158;28;20059;-74
2020/12/27 07:06:43;;;;;;;8.57;7.05;;;;;;;6.98;83.48;99211.84;5094566;28;20028;-74
2020/12/27 07:09:09;;;;;;;13.07;7.95;;;;;;;6.99;83.39;99211.47;5095142;28;20378;-74
2020/12/27 07:11:37;;;;;;;9.55;7.00;;;;;;;6.86;83.68;99184.31;5094487;28;20028;-74
2020/12/27 07:14:03;;;;;;;9.80;7.22;;;;;;;7.02;82.84;99204.41;5094347;28;20085;-75
2020/12/27 07:16:42;;;;;;;14.20;9.20;;;;;;;7.00;82.82;99199.25;5094366;28;20474;-74
2020/12/27 07:19:11;;;;;;;9.82;6.68;;;;;;;7.00;82.52;99195.69;5095405;28;20502;-75
2020/12/27 07:21:36;;;;;;;8.68;6.05;;;;;;;7.03;82.27;99206.81;5094741;28;20020;-74
2020/12/27 07:24:05;;;;;;;9.38;6.63;;;;;;;7.06;82.00;99211.63;5093850;28;20493;-75
2020/12/27 07:26:35;;;;;;;8.77;6.43;;;;;;;6.95;82.15;99193.19;5094297;28;20028;-75
2020/12/27 07:29:05;;;;;;;8.20;7.03;;;;;;;7.06;82.74;99208.06;5093727;28;20111;-75
2020/12/27 07:31:35;;;;;;;6.90;5.70;;;;;;;6.96;82.01;99190.06;5095363;28;20043;-75
2020/12/27 07:34:14;;;;;;;9.00;6.22;;;;;;;7.12;81.62;99206.59;5094615;28;20032;-74
2020/12/27 07:36:40;;;;;;;7.32;6.07;;;;;;;7.11;81.59;99201.44;5095221;28;20027;-74
2020/12/27 07:39:15;;;;;;;8.23;6.65;;;;;;;7.12;81.98;99192.75;5093800;28;20035;-75
2020/12/27 07:41:40;;;;;;;7.32;6.20;;;;;;;7.28;80.53;99215.63;5093893;28;20032;-75
2020/12/27 07:44:14;;;;;;;7.25;6.45;;;;;;;7.14;81.34;99209.81;5093473;28;20611;-74
2020/12/27 07:46:44;;;;;;;11.90;8.38;;;;;;;7.27;81.15;99213.22;5093776;28;20028;-74
2020/12/27 07:49:11;;;;;;;9.65;8.65;;;;;;;7.26;81.26;99225.47;5093496;28;20032;-74
2020/12/27 07:51:37;;;;;;;8.20;7.35;;;;;;;7.25;80.94;99223.88;5093547;28;20032;-74
2020/12/27 07:54:04;;;;;;;6.30;5.00;;;;;;;7.04;79.68;99213.16;5093176;28;20460;-75
2020/12/27 07:56:30;;;;;;;5.28;4.50;;;;;;;7.12;79.39;99219.63;5093498;28;20128;-74
2020/12/27 07:59:01;;;;;;;3.70;3.38;;;;;;;7.14;79.19;99229.19;5093348;28;20039;-75
2020/12/27 08:01:30;;;;;;;6.38;3.47;;;;;;;7.19;79.65;99228.91;5093007;28;20032;-74
2020/12/27 08:04:06;;;;;;;4.95;4.00;;;;;;;7.23;79.50;99231.72;5094227;28;20024;-75
2020/12/27 08:06:39;;;;;;;5.50;3.83;;;;;;;7.20;78.66;99238.78;5093802;28;20020;-74
2020/12/27 08:09:08;;;;;;;5.93;4.03;;;;;;;7.29;78.94;99236.59;5093000;28;20090;-75
2020/12/27 08:11:36;;;;;;;5.47;3.30;;;;;;;7.32;78.03;99224.00;5093441;28;20375;-75
2020/12/27 08:14:25;;;;;;;5.35;4.50;;;;;;;7.55;77.20;99237.91;5076597;28;20123;-74
2020/12/27 08:16:51;;;;;;;5.13;4.60;;;;;;;7.45;77.72;99233.75;5093154;28;20046;-75
2020/12/27 08:19:20;;;;;;;4.80;4.25;;;;;;;7.48;78.06;99237.78;5094023;28;20348;-75
2020/12/27 08:21:46;;;;;;;5.60;4.05;;;;;;;7.49;77.90;99239.38;5092149;28;20110;-75
2020/12/27 08:24:13;;;;;;;5.68;5.05;;;;;;;7.53;77.97;99229.97;5092287;28;20060;-75
2020/12/27 08:26:44;;;;;;;4.80;4.32;;;;;;;7.54;77.84;99230.75;5093231;28;20024;-75
2020/12/27 08:29:24;;;;;;;9.02;4.80;;;;;;;7.64;78.12;99224.63;5094336;28;20031;-75
2020/12/27 08:31:54;;;;;;;4.95;4.00;;;;;;;7.70;76.39;99227.91;5093423;28;20036;-74
2020/12/27 08:34:23;;;;;;;5.50;3.75;;;;;;;7.77;75.41;99223.28;5094121;28;20081;-74
2020/12/27 08:36:55;;;;;;;6.45;4.78;;;;;;;7.75;74.95;99231.19;5094173;28;20371;-74
2020/12/27 08:39:30;;;;;;;6.05;4.47;;;;;;;7.77;74.70;99248.22;5093807;28;20356;-74
2020/12/27 08:42:25;;;;;;;4.53;3.78;;;;;;;7.78;75.59;99246.28;5094381;28;20027;-75
2020/12/27 08:45:09;;;;;;;6.80;4.13;;;;;;;7.77;74.71;99239.09;5107058;28;20509;-74
2020/12/27 08:47:35;;;;;;;2.40;2.20;;;;;;;7.60;72.45;99210.72;5094363;28;20054;-75
2020/12/27 08:50:08;;;;;;;4.32;3.33;;;;;;;7.83;72.38;99243.22;5093292;28;20176;-74
2020/12/27 08:52:34;;;;;;;5.05;3.97;;;;;;;7.82;72.63;99242.38;5093739;28;20030;-74
2020/12/27 08:55:05;;;;;;;4.13;3.10;;;;;;;7.93;72.02;99241.78;5096268;28;20024;-74
2020/12/27 08:57:32;;;;;;;4.40;2.83;;;;;;;7.87;71.43;99244.84;5095207;28;20116;-74
2020/12/27 09:00:04;;;;;;;2.70;2.20;;;;;;;7.92;71.84;99237.41;5096228;28;20491;-74
2020/12/27 09:02:30;;;;;;;3.28;2.95;;;;;;;8.00;71.76;99239.94;5096252;28;20385;-74
2020/12/27 09:05:12;;;;;;;3.90;3.47;;;;;;;8.16;71.77;99262.00;5079059;28;20028;-75
2020/12/27 09:07:46;;;;;;;3.42;2.50;;;;;;;8.25;71.89;99251.44;5095818;28;20028;-74
2020/12/27 09:10:21;;;;;;;5.03;2.90;;;;;;;8.26;70.13;99257.81;5095124;28;20106;-74
2020/12/27 09:13:07;;;;;;;3.30;3.00;;;;;;;8.16;69.41;99256.47;5096044;28;20081;-74
2020/12/27 09:15:43;;;;;;;3.35;2.80;;;;;;;8.19;69.59;99254.91;5095790;28;20030;-75
2020/12/27 09:18:17;;;;;;;4.22;3.17;;;;;;;8.18;69.95;99243.03;5095485;28;20044;-74
2020/12/27 09:20:43;;;;;;;;;;;;;;;8.20;68.95;99245.41;5114894;28;20023;-74
2020/12/27 09:23:27;;;;;;;4.95;3.70;;;;;;;8.26;69.82;99249.50;5111958;28;19908;-74
2020/12/27 09:26:10;;;;;;;4.57;3.13;;;;;;;8.10;68.41;99247.66;5095653;28;20122;-74
2020/12/27 09:28:39;;;;;;;5.72;4.70;;;;;;;8.08;69.17;99249.19;5099744;28;20027;-74
2020/12/27 09:31:07;;;;;;;5.28;4.13;;;;;;;8.09;69.80;99245.22;5099249;28;20024;-74
2020/12/27 09:33:36;;;;;;;2.97;2.40;;;;;;;8.08;68.59;99238.88;5099583;28;20077;-74
2020/12/27 09:36:06;;;;;;;4.45;3.90;;;;;;;8.14;68.58;99236.63;5099513;28;20118;-75
2020/12/27 09:38:36;;;;;;;8.02;5.95;;;;;;;8.05;69.17;99231.34;5099329;28;20057;-74
2020/12/27 09:41:18;;;;;;;7.35;5.38;;;;;;;8.24;70.45;99233.22;5099002;28;20068;-74
2020/12/27 09:43:59;;;;;;;7.38;5.85;;;;;;;8.29;69.61;99237.66;5117571;28;20038;-75
2020/12/27 09:46:46;;;;;;;4.65;4.07;;;;;;;8.33;67.99;99233.78;5116447;28;20054;-75
2020/12/27 09:49:23;;;;;;;5.88;4.45;;;;;;;8.22;67.53;99213.41;5098701;28;20031;-74
2020/12/27 09:52:05;;;;;;;4.93;3.97;;;;;;;8.22;66.98;99215.38;5099510;28;20483;-74
2020/12/27 09:54:32;;;;;;;3.90;2.40;;;;;;;8.40;66.77;99222.84;5094891;28;20052;-74
2020/12/27 09:56:58;;;;;;;5.32;4.82;;;;;;;8.47;67.29;99210.25;5096463;28;20028;-75
2020/12/27 09:59:24;;;;;;;5.47;4.30;;;;;;;8.47;67.09;99215.81;5078747;28;20040;-74
2020/12/27 10:01:49;;;;;;;4.85;3.67;;;;;;;8.64;66.81;99218.06;5095629;28;20024;-74
2020/12/27 10:04:15;;;;;;;4.13;3.47;;;;;;;8.52;65.67;99212.72;5095499;28;20077;-74
2020/12/27 10:06:43;;;;;;;4.63;3.42;;;;;;;8.35;65.55;99219.56;5095863;28;20020;-75
2020/12/27 10:09:12;;;;;;;5.18;4.32;;;;;;;8.43;65.48;99226.06;5096690;28;20039;-74
2020/12/27 10:11:37;;;;;;;8.55;7.03;;;;;;;8.32;66.75;99221.09;5093344;28;20217;-73
2020/12/27 10:14:03;;;;;;;4.25;3.85;;;;;;;8.29;66.92;99215.50;5095398;28;20143;-74
2020/12/27 10:16:30;;;;;;;5.28;4.78;;;;;;;8.27;66.42;99215.88;5096988;28;20150;-75
2020/12/27 10:18:56;;;;;;;4.15;3.75;;;;;;;8.24;66.17;99199.97;5095628;28;20363;-74
2020/12/27 10:21:22;;;;;;;3.67;3.05;;;;;;;8.33;67.05;99200.53;5094925;28;20075;-74
2020/12/27 10:23:47;;;;;;;10.63;6.30;;;;;;;8.59;67.53;99201.75;5094559;28;20032;-74
2020/12/27 10:26:15;;;;;;;7.75;5.68;;;;;;;8.64;67.20;99198.66;5095245;28;20557;-74
2020/12/27 10:28:40;;;;;;;10.55;7.90;;;;;;;8.62;65.83;99201.78;5096072;28;20032;-74
2020/12/27 10:31:08;;;;;;;16.48;7.53;;;;;;;8.71;66.12;99201.53;5094864;28;20043;-74
2020/12/27 10:33:34;;;;;;;4.22;3.83;;;;;;;8.65;64.25;99189.16;5096358;28;20035;-74
2020/12/27 10:35:59;;;;;;;9.43;6.53;;;;;;;8.65;64.92;99189.16;5095299;28;20042;-75
2020/12/27 10:38:28;;;;;;;8.30;6.47;;;;;;;8.77;65.07;99190.91;5111025;28;20129;-74
2020/12/27 10:40:56;;;;;;;9.10;5.82;;;;;;;8.89;66.55;99194.28;5095730;28;20024;-74
2020/12/27 10:43:24;;;;;;;22.55;15.15;;;;;;;8.90;64.24;99184.78;5095192;28;20117;-74
2020/12/27 10:46:02;;;;;;;9.68;5.90;;;;;;;8.92;63.42;99192.72;5094819;28;20538;-74
2020/12/27 10:48:27;;;;;;;8.25;7.32;;;;;;;8.77;64.78;99194.47;5096005;28;20024;-75
2020/12/27 10:50:55;;;;;;;9.73;7.03;;;;;;;8.91;65.57;99189.13;5095113;28;20168;-74
2020/12/27 10:53:24;;;;;;;11.95;9.88;;;;;;;8.98;65.15;99195.94;5094247;28;20062;-74
2020/12/27 10:55:53;;;;;;;13.43;8.75;;;;;;;9.06;65.54;99192.09;5094483;28;20024;-74
2020/12/27 10:58:20;;;;;;;15.95;13.25;;;;;;;9.01;65.17;99195.22;5094804;28;20127;-74
2020/12/27 11:00:46;;;;;;;7.43;6.50;;;;;;;9.03;64.68;99181.75;5095624;28;20091;-74
2020/12/27 11:03:13;;;;;;;8.48;7.32;;;;;;;9.12;64.50;99196.94;5094883;28;20052;-74
2020/12/27 11:05:39;;;;;;;7.35;6.22;;;;;;;9.02;65.02;99185.72;5094518;28;20016;-75
2020/12/27 11:08:05;;;;;;;7.97;5.60;;;;;;;9.04;64.35;99180.56;5094659;28;20077;-78
2020/12/27 11:10:31;;;;;;;6.30;5.20;;;;;;;9.07;64.50;99174.28;5094648;28;20428;-73
2020/12/27 11:12:57;;;;;;;6.32;5.28;;;;;;;8.95;64.11;99141.19;5095890;28;20032;-74
2020/12/27 11:15:22;;;;;;;6.78;5.72;;;;;;;8.96;63.71;99159.47;5094693;28;20028;-74
2020/12/27 11:17:48;;;;;;;6.57;5.80;;;;;;;9.09;63.91;99155.25;5094345;28;20039;-74
2020/12/27 11:20:13;;;;;;;6.38;5.28;;;;;;;9.07;64.05;99160.41;5093862;28;20028;-74
2020/12/27 11:22:43;;;;;;;5.70;5.13;;;;;;;8.76;64.73;99134.63;5094063;28;20038;-74
2020/12/27 11:25:11;;;;;;;7.35;6.63;;;;;;;9.00;65.21;99146.41;5094092;28;20024;-75
2020/12/27 11:27:40;;;;;;;8.48;6.90;;;;;;;9.04;64.98;99147.28;5093936;28;20047;-74
2020/12/27 11:30:08;;;;;;;6.72;4.72;;;;;;;8.99;63.58;99145.63;5093931;28;20073;-74
2020/12/27 11:32:34;;;;;;;4.78;4.05;;;;;;;8.90;63.72;99145.94;5094123;28;20549;-74
2020/12/27 11:34:59;;;;;;;9.40;8.38;;;;;;;8.87;65.06;99141.13;5093786;28;20107;-74
2020/12/27 11:37:25;;;;;;;11.25;8.73;;;;;;;8.82;65.22;99133.13;5095343;28;20028;-74
2020/12/27 11:39:53;;;;;;;8.50;7.30;;;;;;;8.87;64.60;99130.03;5094167;28;20053;-74
2020/12/27 11:42:18;;;;;;;6.57;5.30;;;;;;;8.96;64.05;99137.28;5094656;28;20039;-74
2020/12/27 11:44:46;;;;;;;16.52;10.38;;;;;;;8.91;64.86;99130.88;5092832;28;20028;-72
2020/12/27 11:47:12;;;;;;;8.88;6.75;;;;;;;8.95;64.14;99128.16;5093181;28;20030;-75